createdAt,value
2023-05-13T00:00:38.514Z,1.60
2023-05-13T00:03:12.652Z,1.30
2023-05-13T00:05:40.693Z,1.38
2023-05-13T00:08:09.099Z,1.20
2023-05-13T00:10:36.718Z,1.25
2023-05-13T00:13:06.869Z,1.10
2023-05-13T00:15:39.020Z,1.10
2023-05-13T00:18:20.366Z,1.05
2023-05-13T00:20:47.675Z,1.20
2023-05-13T00:23:17.068Z,0.95
2023-05-13T00:28:42.785Z,1.00
2023-05-13T00:31:38.912Z,0.80
2023-05-13T00:35:22.182Z,0.82
2023-05-13T00:41:20.318Z,0.73
2023-05-13T00:43:51.558Z,0.90
2023-05-13T00:46:35.879Z,1.13
2023-05-13T00:49:09.084Z,0.90
2023-05-13T00:51:39.383Z,0.88
2023-05-13T00:54:08.133Z,1.10
2023-05-13T00:59:54.511Z,1.00
2023-05-13T01:09:06.188Z,1.02
2023-05-13T01:11:42.162Z,1.20
2023-05-13T01:14:17.422Z,1.00
2023-05-13T01:17:24.758Z,1.25
2023-05-13T01:20:00.931Z,1.05
2023-05-13T01:22:30.269Z,1.05
2023-05-13T01:24:57.800Z,1.35
2023-05-13T01:27:25.213Z,1.27
2023-05-13T01:29:55.608Z,1.25
2023-05-13T01:32:25.506Z,1.30
2023-05-13T01:34:57.138Z,1.27
2023-05-13T01:37:24.379Z,1.40
2023-05-13T01:39:52.418Z,1.25
2023-05-13T01:45:06.901Z,1.52
2023-05-13T01:47:48.748Z,1.42
2023-05-13T01:50:19.101Z,1.33
2023-05-13T01:52:48.011Z,1.40
2023-05-13T01:55:21.238Z,1.40
2023-05-13T01:57:57.965Z,1.63
2023-05-13T02:00:50.527Z,1.50
2023-05-13T02:03:21.602Z,1.48
2023-05-13T02:05:49.322Z,1.75
2023-05-13T02:08:16.758Z,1.88
2023-05-13T02:11:24.493Z,1.58
2023-05-13T02:13:53.033Z,1.80
2023-05-13T02:16:21.026Z,1.88
2023-05-13T02:18:54.468Z,1.75
2023-05-13T02:25:00.099Z,1.58
2023-05-13T02:39:02.004Z,1.77
2023-05-13T02:45:03.843Z,1.90
2023-05-13T02:51:14.549Z,1.83
2023-05-13T02:53:41.638Z,1.85
2023-05-13T02:58:52.359Z,1.95
2023-05-13T03:01:19.504Z,1.95
2023-05-13T03:04:15.777Z,1.92
2023-05-13T03:06:59.369Z,1.65
2023-05-13T03:12:33.025Z,2.00
2023-05-13T03:15:01.666Z,2.00
2023-05-13T03:17:31.027Z,1.92
2023-05-13T03:20:18.052Z,1.73
2023-05-13T03:23:02.755Z,1.90
2023-05-13T03:25:30.024Z,1.90
2023-05-13T03:27:57.861Z,2.00
2023-05-13T03:30:25.884Z,1.70
2023-05-13T03:32:58.636Z,1.92
2023-05-13T03:35:25.931Z,1.83
2023-05-13T03:40:41.201Z,1.65
2023-05-13T03:43:18.553Z,1.80
2023-05-13T03:45:54.113Z,1.60
2023-05-13T03:48:25.247Z,1.67
2023-05-13T03:50:57.728Z,1.30
2023-05-13T03:53:25.940Z,1.50
2023-05-13T03:55:54.188Z,1.38
2023-05-13T03:58:32.796Z,1.23
2023-05-13T04:00:59.941Z,1.40
2023-05-13T04:03:42.360Z,1.50
2023-05-13T04:08:41.995Z,1.27
2023-05-13T04:11:17.840Z,1.20
2023-05-13T04:13:46.441Z,1.30
2023-05-13T04:16:14.686Z,1.38
2023-05-13T04:21:29.663Z,1.40
2023-05-13T04:24:24.601Z,1.60
2023-05-13T04:27:01.640Z,1.30
2023-05-13T04:29:29.837Z,1.02
2023-05-13T04:31:57.036Z,1.20
2023-05-13T04:34:44.168Z,1.13
2023-05-13T04:37:16.248Z,1.20
2023-05-13T04:39:49.143Z,1.33
2023-05-13T04:42:16.914Z,1.30
2023-05-13T04:44:48.324Z,1.23
2023-05-13T04:49:45.039Z,1.15
2023-05-13T04:52:15.307Z,1.20
2023-05-13T04:54:44.059Z,1.55
2023-05-13T04:57:24.171Z,1.20
2023-05-13T04:59:51.348Z,1.08
2023-05-13T05:05:03.139Z,1.25
2023-05-13T05:07:30.462Z,1.02
2023-05-13T05:10:10.695Z,1.08
2023-05-13T05:12:38.318Z,1.17
2023-05-13T05:15:15.925Z,1.08
2023-05-13T05:18:11.118Z,1.30
2023-05-13T05:20:41.371Z,1.23
2023-05-13T05:23:10.595Z,1.25
2023-05-13T05:25:37.817Z,1.50
2023-05-13T05:28:05.317Z,1.27
2023-05-13T05:30:39.470Z,1.50
2023-05-13T05:33:08.468Z,1.30
2023-05-13T05:35:37.491Z,1.40
2023-05-13T05:38:05.386Z,1.17
2023-05-13T05:40:33.732Z,1.30
2023-05-13T05:43:07.303Z,1.13
2023-05-13T05:45:39.230Z,1.15
2023-05-13T05:48:08.371Z,1.08
2023-05-13T05:50:36.780Z,1.20
2023-05-13T05:53:04.803Z,1.30
2023-05-13T05:55:33.078Z,1.10
2023-05-13T05:58:05.970Z,1.10
2023-05-13T06:00:33.921Z,1.70
2023-05-13T06:03:03.668Z,1.20
2023-05-13T06:05:30.878Z,1.10
2023-05-13T06:07:58.175Z,1.25
2023-05-13T06:10:25.472Z,1.20
2023-05-13T06:13:02.532Z,1.20
2023-05-13T06:15:29.593Z,1.20
2023-05-13T06:17:57.885Z,1.23
2023-05-13T06:20:25.285Z,1.30
2023-05-13T06:22:54.793Z,1.20
2023-05-13T06:25:21.959Z,1.25
2023-05-13T06:27:49.190Z,1.13
2023-05-13T06:30:16.619Z,1.30
2023-05-13T06:32:53.559Z,1.20
2023-05-13T06:35:28.096Z,1.20
2023-05-13T06:37:55.132Z,1.30
2023-05-13T06:40:24.873Z,1.20
2023-05-13T06:42:52.094Z,0.98
2023-05-13T06:45:25.109Z,1.27
2023-05-13T06:47:53.775Z,1.08
2023-05-13T06:50:21.266Z,1.20
2023-05-13T06:52:48.613Z,1.02
2023-05-13T06:55:18.781Z,1.10
2023-05-13T06:57:46.969Z,1.08
2023-05-13T07:00:16.008Z,1.05
2023-05-13T07:02:43.356Z,1.10
2023-05-13T07:05:13.305Z,1.23
2023-05-13T07:07:42.218Z,1.17
2023-05-13T07:10:09.846Z,1.10
2023-05-13T07:12:42.428Z,1.23
2023-05-13T07:15:11.523Z,1.20
2023-05-13T07:17:43.577Z,1.33
2023-05-13T07:20:15.089Z,1.00
2023-05-13T07:22:42.194Z,1.00
2023-05-13T07:25:12.632Z,1.02
2023-05-13T07:27:55.393Z,1.05
2023-05-13T07:30:22.899Z,1.00
2023-05-13T07:32:51.408Z,1.10
2023-05-13T07:35:20.616Z,1.20
2023-05-13T07:37:48.080Z,0.80
2023-05-13T07:40:30.354Z,1.10
2023-05-13T07:42:57.407Z,0.98
2023-05-13T07:45:26.665Z,1.20
2023-05-13T07:47:53.999Z,1.20
2023-05-13T07:50:21.324Z,1.20
2023-05-13T07:52:51.904Z,0.95
2023-05-13T07:55:19.692Z,0.75
2023-05-13T07:57:46.923Z,0.90
2023-05-13T08:00:23.611Z,1.10
2023-05-13T08:02:51.493Z,1.05
2023-05-13T08:05:18.785Z,1.00
2023-05-13T08:07:45.880Z,0.95
2023-05-13T08:10:13.015Z,1.10
2023-05-13T08:12:41.078Z,1.17
2023-05-13T08:15:14.486Z,0.93
2023-05-13T08:17:41.827Z,0.88
2023-05-13T08:20:11.350Z,0.90
2023-05-13T08:22:39.856Z,0.90
2023-05-13T08:25:16.139Z,0.80
2023-05-13T08:27:44.779Z,0.95
2023-05-13T08:30:12.507Z,1.00
2023-05-13T08:32:39.702Z,0.80
2023-05-13T08:35:09.633Z,0.77
2023-05-13T08:37:36.667Z,0.80
2023-05-13T08:40:05.024Z,0.80
2023-05-13T08:42:33.723Z,0.90
2023-05-13T08:45:06.355Z,0.80
2023-05-13T08:47:42.809Z,0.90
2023-05-13T08:50:15.511Z,0.80
2023-05-13T08:52:44.852Z,0.68
2023-05-13T08:55:12.977Z,0.65
2023-05-13T08:57:40.305Z,0.70
2023-05-13T09:00:08.598Z,0.70
2023-05-13T09:02:35.865Z,0.80
2023-05-13T09:05:10.079Z,0.75
2023-05-13T09:07:39.514Z,0.60
2023-05-13T09:10:10.419Z,0.70
2023-05-13T09:13:02.680Z,0.70
2023-05-13T09:15:32.290Z,0.70
2023-05-13T09:18:09.697Z,0.77
2023-05-13T09:20:37.533Z,0.77
2023-05-13T09:23:27.208Z,0.80
2023-05-13T09:25:54.354Z,0.90
2023-05-13T09:28:25.973Z,0.88
2023-05-13T09:31:17.102Z,0.85
2023-05-13T09:33:53.126Z,0.60
2023-05-13T09:36:23.354Z,0.80
2023-05-13T09:38:55.696Z,1.00
2023-05-13T09:41:46.528Z,0.70
2023-05-13T09:44:16.144Z,0.70
2023-05-13T09:46:43.890Z,0.80
2023-05-13T09:49:14.985Z,0.68
2023-05-13T09:51:47.784Z,0.80
2023-05-13T09:54:16.760Z,0.80
2023-05-13T09:56:43.971Z,0.70
2023-05-13T09:59:11.187Z,0.70
2023-05-13T10:02:07.884Z,0.88
2023-05-13T10:04:41.379Z,0.63
2023-05-13T10:07:10.050Z,0.60
2023-05-13T10:09:40.173Z,0.80
2023-05-13T10:12:09.110Z,0.73
2023-05-13T10:15:13.419Z,0.70
2023-05-13T10:17:46.992Z,0.65
2023-05-13T10:20:15.105Z,0.57
2023-05-13T10:22:55.234Z,0.70
2023-05-13T10:25:28.669Z,0.80
2023-05-13T10:28:03.034Z,0.88
2023-05-13T10:30:36.076Z,0.70
2023-05-13T10:33:04.620Z,0.60
2023-05-13T10:35:42.782Z,0.70
2023-05-13T10:38:15.639Z,0.77
2023-05-13T10:41:29.040Z,0.60
2023-05-13T10:43:59.668Z,0.68
2023-05-13T10:46:30.370Z,0.60
2023-05-13T10:49:00.396Z,0.60
2023-05-13T10:51:29.205Z,0.55
2023-05-13T10:54:01.037Z,0.52
2023-05-13T10:56:29.176Z,0.60
2023-05-13T10:59:05.089Z,0.55
2023-05-13T11:01:47.005Z,0.47
2023-05-13T11:04:20.117Z,0.60
2023-05-13T11:06:50.934Z,0.60
2023-05-13T11:09:26.140Z,0.60
2023-05-13T11:11:56.587Z,0.80
2023-05-13T11:14:33.914Z,0.50
2023-05-13T11:17:01.357Z,0.50
2023-05-13T11:19:37.422Z,0.60
2023-05-13T11:22:19.761Z,0.45
2023-05-13T11:25:10.022Z,0.50
2023-05-13T11:27:47.894Z,0.60
2023-05-13T11:30:28.588Z,0.50
2023-05-13T11:33:03.996Z,0.35
2023-05-13T11:35:33.966Z,0.60
2023-05-13T11:38:12.767Z,0.40
2023-05-13T11:40:50.095Z,0.55
2023-05-13T11:43:22.775Z,0.60
2023-05-13T11:45:57.626Z,0.50
2023-05-13T11:48:26.399Z,0.60
2023-05-13T11:50:57.565Z,0.47
2023-05-13T11:53:26.037Z,0.40
2023-05-13T11:55:58.576Z,0.40
2023-05-13T11:58:27.906Z,0.60
2023-05-13T12:00:55.293Z,0.40
2023-05-13T12:03:22.410Z,0.60
2023-05-13T12:05:51.360Z,0.50
2023-05-13T12:08:18.484Z,0.70
2023-05-13T12:10:46.016Z,0.60
2023-05-13T12:13:18.801Z,0.43
2023-05-13T12:15:46.357Z,0.60
2023-05-13T12:18:13.662Z,0.40
2023-05-13T12:20:40.907Z,0.40
2023-05-13T12:23:12.164Z,0.40
2023-05-13T12:25:49.119Z,0.52
2023-05-13T12:28:25.851Z,0.50
2023-05-13T12:31:00.833Z,0.43
2023-05-13T12:33:31.388Z,0.45
2023-05-13T12:36:32.110Z,0.50
2023-05-13T12:39:09.246Z,0.52
2023-05-13T12:41:53.728Z,0.40
2023-05-13T12:44:23.061Z,0.40
2023-05-13T12:46:55.243Z,0.73
2023-05-13T12:49:22.579Z,0.70
2023-05-13T12:51:51.859Z,0.50
2023-05-13T12:54:19.473Z,0.50
2023-05-13T12:56:46.789Z,0.60
2023-05-13T12:59:14.620Z,0.30
2023-05-13T13:01:42.987Z,0.38
2023-05-13T13:04:10.641Z,0.30
2023-05-13T13:06:38.041Z,0.30
2023-05-13T13:09:06.066Z,0.50
2023-05-13T13:11:33.206Z,0.38
2023-05-13T13:14:00.304Z,0.50
2023-05-13T13:16:27.609Z,0.30
2023-05-13T13:18:58.953Z,0.40
2023-05-13T13:21:26.856Z,0.40
2023-05-13T13:23:54.018Z,0.60
2023-05-13T13:26:23.230Z,0.40
2023-05-13T13:28:50.366Z,0.43
2023-05-13T13:31:17.518Z,0.50
2023-05-13T13:33:44.739Z,0.30
2023-05-13T13:36:11.919Z,0.40
2023-05-13T13:38:38.989Z,0.40
2023-05-13T13:41:06.330Z,0.50
2023-05-13T13:43:33.514Z,0.50
2023-05-13T13:46:00.735Z,0.30
2023-05-13T13:48:27.931Z,0.40
2023-05-13T13:50:55.192Z,0.28
2023-05-13T13:53:22.687Z,0.40
2023-05-13T13:55:49.840Z,0.40
2023-05-13T13:58:16.994Z,0.40
2023-05-13T14:00:44.185Z,0.32
2023-05-13T14:03:11.666Z,0.45
2023-05-13T14:05:38.892Z,0.50
2023-05-13T14:08:06.503Z,0.40
2023-05-13T14:10:33.600Z,0.40
2023-05-13T14:13:00.833Z,0.30
2023-05-13T14:15:30.239Z,0.30
2023-05-13T14:17:57.877Z,0.63
2023-05-13T14:20:25.142Z,0.38
2023-05-13T14:22:52.290Z,0.47
2023-05-13T14:25:19.376Z,0.47
2023-05-13T14:27:46.620Z,0.60
2023-05-13T14:30:13.906Z,0.35
2023-05-13T14:32:45.343Z,0.40
2023-05-13T14:35:14.594Z,0.50
2023-05-13T14:37:42.797Z,0.40
2023-05-13T14:40:10.439Z,0.38
2023-05-13T14:42:37.633Z,0.40
2023-05-13T14:45:06.083Z,0.55
2023-05-13T14:47:33.223Z,0.70
2023-05-13T14:50:00.357Z,0.63
2023-05-13T14:52:27.461Z,0.60
2023-05-13T14:54:55.069Z,0.68
2023-05-13T14:57:26.231Z,0.50
2023-05-13T14:59:53.343Z,0.77
2023-05-13T15:02:20.667Z,0.68
2023-05-13T15:04:47.903Z,0.70
2023-05-13T15:07:15.485Z,0.93
2023-05-13T15:09:43.149Z,0.70
2023-05-13T15:12:10.422Z,0.90
2023-05-13T15:14:37.571Z,0.85
2023-05-13T15:17:06.252Z,0.88
2023-05-13T15:19:33.523Z,0.90
2023-05-13T15:22:00.683Z,0.73
2023-05-13T15:24:27.739Z,1.02
2023-05-13T15:26:55.022Z,1.20
2023-05-13T15:29:22.254Z,1.00
2023-05-13T15:31:51.179Z,1.20
2023-05-13T15:34:18.453Z,1.10
2023-05-13T15:36:45.589Z,1.10
2023-05-13T15:39:12.701Z,1.10
2023-05-13T15:41:42.729Z,1.17
2023-05-13T15:44:09.835Z,1.20
2023-05-13T15:46:37.264Z,1.15
2023-05-13T15:49:04.415Z,1.17
2023-05-13T15:51:31.960Z,1.42
2023-05-13T15:54:00.380Z,1.58
2023-05-13T15:56:27.671Z,1.52
2023-05-13T15:58:55.885Z,2.00
2023-05-13T16:01:23.157Z,1.60
2023-05-13T16:03:50.222Z,1.70
2023-05-13T16:06:17.293Z,1.60
2023-05-13T16:08:44.501Z,1.60
2023-05-13T16:11:13.138Z,1.90
2023-05-13T16:13:40.764Z,1.75
2023-05-13T16:16:08.281Z,1.70
2023-05-13T16:18:35.441Z,2.00
2023-05-13T16:21:02.573Z,2.17
2023-05-13T16:23:29.704Z,2.25
2023-05-13T16:25:56.788Z,1.83
2023-05-13T16:28:23.916Z,2.05
2023-05-13T16:30:51.460Z,1.77
2023-05-13T16:33:18.800Z,2.08
2023-05-13T16:35:45.913Z,1.67
2023-05-13T16:38:14.421Z,1.75
2023-05-13T16:40:41.596Z,1.90
2023-05-13T16:43:08.694Z,2.33
2023-05-13T16:45:35.917Z,1.85
2023-05-13T16:48:03.202Z,1.83
2023-05-13T16:50:30.499Z,2.00
2023-05-13T16:52:57.949Z,1.80
2023-05-13T16:55:26.183Z,1.83
2023-05-13T16:57:56.392Z,1.80
2023-05-13T17:00:23.997Z,1.80
2023-05-13T17:02:51.350Z,1.80
2023-05-13T17:05:18.747Z,1.73
2023-05-13T17:07:45.883Z,2.03
2023-05-13T17:10:13.012Z,1.95
2023-05-13T17:12:40.233Z,1.92
2023-05-13T17:15:08.022Z,2.00
2023-05-13T17:17:35.162Z,2.10
2023-05-13T17:20:02.301Z,2.22
2023-05-13T17:22:29.417Z,2.25
2023-05-13T17:24:56.545Z,1.88
2023-05-13T17:27:23.574Z,2.05
2023-05-13T17:29:50.710Z,2.13
2023-05-13T17:32:17.983Z,1.90
2023-05-13T17:34:45.141Z,2.03
2023-05-13T17:37:12.478Z,2.08
2023-05-13T17:39:39.798Z,2.10
2023-05-13T17:42:06.979Z,2.08
2023-05-13T17:44:34.558Z,1.85
2023-05-13T17:47:01.887Z,2.22
2023-05-13T17:49:28.936Z,2.28
2023-05-13T17:51:56.098Z,2.20
2023-05-13T17:54:23.208Z,2.40
2023-05-13T17:56:51.594Z,2.30
2023-05-13T17:59:18.755Z,2.00
2023-05-13T18:01:45.936Z,2.30
2023-05-13T18:04:13.239Z,2.35
2023-05-13T18:06:40.303Z,2.42
2023-05-13T18:09:08.454Z,2.40
2023-05-13T18:11:35.636Z,2.30
2023-05-13T18:14:04.529Z,2.53
2023-05-13T18:16:31.681Z,2.50
2023-05-13T18:18:58.893Z,2.15
2023-05-13T18:21:29.005Z,2.40
2023-05-13T18:23:56.662Z,2.53
2023-05-13T18:26:25.038Z,2.42
2023-05-13T18:28:52.362Z,2.20
2023-05-13T18:31:20.919Z,2.70
2023-05-13T18:33:48.010Z,2.58
2023-05-13T18:36:15.392Z,2.53
2023-05-13T18:38:45.947Z,2.20
2023-05-13T18:41:16.576Z,2.58
2023-05-13T18:43:43.702Z,2.30
2023-05-13T18:46:11.782Z,2.38
2023-05-13T18:48:38.944Z,2.10
2023-05-13T18:51:08.524Z,2.10
2023-05-13T18:53:37.808Z,2.30
2023-05-13T18:56:10.379Z,2.20
2023-05-13T18:58:37.986Z,2.53
2023-05-13T19:01:12.155Z,2.45
2023-05-13T19:03:39.565Z,2.50
2023-05-13T19:06:07.079Z,2.35
2023-05-13T19:08:35.373Z,2.30
2023-05-13T19:11:04.181Z,2.60
2023-05-13T19:13:46.886Z,2.45
2023-05-13T19:16:15.912Z,2.83
2023-05-13T19:18:43.086Z,2.30
2023-05-13T19:21:10.806Z,2.45
2023-05-13T19:23:38.427Z,2.50
2023-05-13T19:26:05.825Z,2.55
2023-05-13T19:28:33.469Z,2.50
2023-05-13T19:31:00.580Z,2.53
2023-05-13T19:33:27.870Z,2.63
2023-05-13T19:35:54.978Z,2.58
2023-05-13T19:38:23.757Z,2.60
2023-05-13T19:40:53.363Z,2.75
2023-05-13T19:43:20.459Z,2.40
2023-05-13T19:45:47.541Z,2.45
2023-05-13T19:48:14.885Z,2.60
2023-05-13T19:50:42.183Z,2.80
2023-05-13T19:53:09.441Z,2.67
2023-05-13T19:55:36.652Z,2.70
2023-05-13T19:58:03.765Z,2.42
2023-05-13T20:00:30.960Z,2.58
2023-05-13T20:02:58.441Z,2.80
2023-05-13T20:05:25.529Z,2.45
2023-05-13T20:07:52.594Z,2.55
2023-05-13T20:10:19.691Z,2.58
2023-05-13T20:12:46.921Z,2.70
2023-05-13T20:15:14.708Z,2.53
2023-05-13T20:17:42.691Z,2.25
2023-05-13T20:20:19.582Z,2.78
2023-05-13T20:22:46.660Z,2.78
2023-05-13T20:25:14.221Z,2.58
2023-05-13T20:27:41.472Z,2.58
2023-05-13T20:30:09.620Z,2.50
2023-05-13T20:32:36.783Z,2.30
2023-05-13T20:35:04.174Z,2.90
2023-05-13T20:37:31.336Z,2.80
2023-05-13T20:39:58.613Z,2.65
2023-05-13T20:42:26.716Z,2.50
2023-05-13T20:44:53.878Z,2.65
2023-05-13T20:47:22.630Z,2.63
2023-05-13T20:49:52.601Z,2.75
2023-05-13T20:52:20.166Z,2.90
2023-05-13T20:54:47.248Z,2.67
2023-05-13T20:57:14.349Z,2.50
2023-05-13T20:59:41.506Z,2.40
2023-05-13T21:02:08.855Z,2.83
2023-05-13T21:04:36.000Z,2.55
2023-05-13T21:07:05.118Z,2.95
2023-05-13T21:09:32.369Z,2.70
2023-05-13T21:11:59.538Z,3.05
2023-05-13T21:14:28.744Z,2.97
2023-05-13T21:16:55.913Z,2.42
2023-05-13T21:19:25.800Z,2.50
2023-05-13T21:21:52.852Z,2.40
2023-05-13T21:24:20.286Z,2.55
2023-05-13T21:26:49.179Z,2.50
2023-05-13T21:29:18.491Z,2.50
2023-05-13T21:31:47.428Z,2.53
2023-05-13T21:34:14.733Z,2.55
2023-05-13T21:36:42.103Z,2.50
2023-05-13T21:39:10.597Z,2.53
2023-05-13T21:41:37.945Z,2.40
2023-05-13T21:44:05.430Z,2.95
2023-05-13T21:46:32.884Z,2.42
2023-05-13T21:49:00.797Z,2.45
2023-05-13T21:51:28.443Z,2.38
2023-05-13T21:53:55.554Z,2.45
2023-05-13T21:56:22.649Z,2.42
2023-05-13T21:58:50.244Z,2.25
2023-05-13T22:01:18.206Z,2.78
2023-05-13T22:03:45.429Z,2.63
2023-05-13T22:06:12.559Z,3.00
2023-05-13T22:08:39.716Z,2.50
2023-05-13T22:11:08.244Z,2.28
2023-05-13T22:13:35.429Z,2.83
2023-05-13T22:16:02.620Z,2.40
2023-05-13T22:18:29.935Z,2.65
2023-05-13T22:20:58.805Z,2.45
2023-05-13T22:23:26.080Z,2.40
2023-05-13T22:25:53.259Z,2.60
2023-05-13T22:28:20.764Z,2.65
2023-05-13T22:30:51.444Z,2.53
2023-05-13T22:33:19.155Z,2.67
2023-05-13T22:35:47.669Z,2.65
2023-05-13T22:38:14.750Z,3.03
2023-05-13T22:40:41.888Z,2.60
2023-05-13T22:43:12.765Z,2.80
2023-05-13T22:45:40.028Z,3.03
2023-05-13T22:48:08.102Z,2.67
2023-05-13T22:50:35.718Z,3.38
2023-05-13T22:53:03.415Z,2.70
2023-05-13T22:55:30.545Z,2.90
2023-05-13T22:57:57.733Z,3.17
2023-05-13T23:00:25.097Z,2.88
2023-05-13T23:02:52.482Z,3.28
2023-05-13T23:05:19.832Z,3.15
2023-05-13T23:07:47.073Z,3.28
2023-05-13T23:10:14.465Z,2.97
2023-05-13T23:12:42.867Z,3.35
2023-05-13T23:15:11.769Z,2.90
2023-05-13T23:17:39.104Z,3.20
2023-05-13T23:20:07.473Z,3.25
2023-05-13T23:22:36.487Z,3.13
2023-05-13T23:25:03.850Z,3.13
2023-05-13T23:27:32.710Z,3.67
2023-05-13T23:30:00.428Z,2.95
2023-05-13T23:32:27.754Z,2.97
2023-05-13T23:34:56.004Z,3.08
2023-05-13T23:37:23.222Z,3.25
2023-05-13T23:39:52.751Z,2.95
2023-05-13T23:42:19.848Z,3.13
2023-05-13T23:44:47.136Z,3.08
2023-05-13T23:47:15.634Z,2.88
2023-05-13T23:49:43.501Z,3.20
2023-05-13T23:52:11.444Z,3.35
2023-05-13T23:54:38.525Z,3.22
2023-05-13T23:57:05.935Z,2.60
2023-05-13T23:59:32.992Z,3.05
